createdAt,value
2024-03-15T00:00:19.624Z,23.95
2024-03-15T00:01:24.319Z,23.20
2024-03-15T00:02:26.109Z,20.83
2024-03-15T00:03:27.911Z,22.25
2024-03-15T00:04:29.638Z,20.48
2024-03-15T00:05:31.589Z,22.87
2024-03-15T00:06:33.626Z,21.85
2024-03-15T00:07:35.433Z,22.13
2024-03-15T00:08:38.711Z,25.50
2024-03-15T00:09:40.911Z,21.83
2024-03-15T00:10:42.781Z,22.75
2024-03-15T00:11:44.818Z,23.62
2024-03-15T00:12:47.127Z,22.95
2024-03-15T00:13:49.096Z,21.92
2024-03-15T00:14:50.874Z,19.37
2024-03-15T00:15:53.324Z,21.27
2024-03-15T00:16:56.263Z,27.48
2024-03-15T00:17:59.660Z,20.90
2024-03-15T00:19:03.456Z,21.00
2024-03-15T00:20:08.125Z,21.80
2024-03-15T00:21:11.485Z,21.73
2024-03-15T00:22:13.945Z,23.98
2024-03-15T00:23:15.682Z,23.77
2024-03-15T00:24:17.444Z,21.37
2024-03-15T00:25:22.659Z,23.15
2024-03-15T00:26:24.531Z,20.77
2024-03-15T00:27:26.756Z,22.77
2024-03-15T00:28:28.560Z,22.10
2024-03-15T00:29:33.464Z,21.15
2024-03-15T00:30:35.347Z,25.70
2024-03-15T00:31:40.391Z,21.98
2024-03-15T00:32:42.599Z,23.20
2024-03-15T00:33:44.494Z,20.50
2024-03-15T00:34:46.315Z,22.98
2024-03-15T00:35:48.028Z,21.15
2024-03-15T00:36:49.903Z,23.10
2024-03-15T00:37:51.980Z,19.12
2024-03-15T00:38:53.745Z,21.85
2024-03-15T00:39:55.593Z,21.30
2024-03-15T00:40:57.370Z,22.17
2024-03-15T00:41:59.154Z,21.27
2024-03-15T00:43:02.117Z,20.12
2024-03-15T00:44:06.067Z,20.98
2024-03-15T00:45:08.573Z,21.20
2024-03-15T00:46:10.426Z,19.17
2024-03-15T00:47:14.085Z,22.55
2024-03-15T00:48:16.522Z,17.85
2024-03-15T00:49:18.417Z,22.70
2024-03-15T00:50:20.217Z,19.15
2024-03-15T00:51:21.966Z,17.10
2024-03-15T00:52:24.277Z,18.05
2024-03-15T00:53:26.293Z,19.23
2024-03-15T00:54:28.686Z,20.08
2024-03-15T00:55:32.197Z,21.15
2024-03-15T00:56:34.144Z,18.90
2024-03-15T00:57:36.086Z,18.35
2024-03-15T00:58:38.558Z,18.35
2024-03-15T00:59:40.921Z,18.02
2024-03-15T01:00:43.662Z,20.50
2024-03-15T01:01:45.520Z,17.90
2024-03-15T01:02:47.306Z,16.60
2024-03-15T01:03:49.433Z,17.87
2024-03-15T01:04:52.308Z,17.00
2024-03-15T01:05:54.436Z,15.07
2024-03-15T01:06:56.216Z,20.15
2024-03-15T01:07:58.024Z,15.10
2024-03-15T01:09:00.089Z,18.27
2024-03-15T01:10:01.888Z,17.02
2024-03-15T01:11:03.843Z,18.62
2024-03-15T01:12:05.829Z,19.15
2024-03-15T01:13:07.646Z,14.85
2024-03-15T01:14:09.896Z,16.25
2024-03-15T01:15:12.028Z,15.95
2024-03-15T01:16:13.818Z,17.83
2024-03-15T01:17:17.178Z,16.50
2024-03-15T01:18:19.304Z,13.68
2024-03-15T01:19:21.422Z,14.27
2024-03-15T01:20:23.216Z,15.43
2024-03-15T01:21:27.290Z,16.15
2024-03-15T01:22:29.208Z,15.95
2024-03-15T01:23:32.881Z,14.32
2024-03-15T01:24:34.951Z,14.35
2024-03-15T01:25:39.118Z,14.40
2024-03-15T01:26:41.313Z,15.52
2024-03-15T01:27:43.996Z,14.55
2024-03-15T01:28:45.732Z,15.10
2024-03-15T01:29:48.077Z,15.70
2024-03-15T01:30:49.999Z,14.68
2024-03-15T01:31:51.942Z,14.40
2024-03-15T01:32:53.735Z,12.43
2024-03-15T01:33:56.910Z,14.98
2024-03-15T01:34:59.258Z,15.00
2024-03-15T01:36:01.014Z,13.80
2024-03-15T01:37:03.830Z,15.57
2024-03-15T01:38:05.599Z,12.73
2024-03-15T01:39:07.919Z,14.50
2024-03-15T01:40:12.384Z,13.45
2024-03-15T01:41:14.164Z,12.88
2024-03-15T01:42:16.669Z,15.40
2024-03-15T01:43:18.476Z,14.23
2024-03-15T01:44:20.224Z,15.73
2024-03-15T01:45:22.363Z,13.77
2024-03-15T01:46:24.335Z,13.68
2024-03-15T01:47:28.754Z,12.18
2024-03-15T01:48:30.626Z,12.88
2024-03-15T01:49:32.399Z,14.55
2024-03-15T01:50:39.957Z,14.30
2024-03-15T01:51:42.067Z,17.50
2024-03-15T01:52:44.304Z,13.18
2024-03-15T01:53:46.168Z,14.55
2024-03-15T01:54:48.560Z,14.55
2024-03-15T01:55:50.583Z,13.48
2024-03-15T01:56:52.749Z,15.13
2024-03-15T01:57:54.722Z,11.20
2024-03-15T01:58:56.534Z,12.70
2024-03-15T02:00:01.347Z,13.32
2024-03-15T02:01:03.870Z,12.02
2024-03-15T02:02:06.718Z,12.18
2024-03-15T02:03:10.007Z,12.88
2024-03-15T02:04:11.841Z,14.32
2024-03-15T02:05:14.305Z,12.85
2024-03-15T02:06:16.283Z,13.10
2024-03-15T02:07:18.379Z,11.93
2024-03-15T02:08:20.287Z,12.82
2024-03-15T02:09:22.597Z,13.02
2024-03-15T02:10:27.205Z,14.95
2024-03-15T02:11:29.036Z,13.43
2024-03-15T02:12:31.298Z,14.23
2024-03-15T02:13:33.056Z,14.40
2024-03-15T02:14:34.833Z,14.30
2024-03-15T02:15:37.494Z,11.77
2024-03-15T02:16:39.275Z,14.13
2024-03-15T02:17:44.009Z,14.65
2024-03-15T02:18:46.114Z,12.25
2024-03-15T02:19:47.950Z,12.55
2024-03-15T02:20:49.697Z,12.55
2024-03-15T02:21:51.502Z,13.40
2024-03-15T02:22:54.540Z,13.85
2024-03-15T02:23:56.285Z,14.10
2024-03-15T02:24:58.115Z,12.85
2024-03-15T02:25:59.888Z,11.57
2024-03-15T02:27:02.728Z,13.18
2024-03-15T02:28:08.066Z,13.02
2024-03-15T02:29:10.263Z,13.32
2024-03-15T02:30:13.211Z,12.93
2024-03-15T02:31:15.120Z,13.02
2024-03-15T02:32:16.839Z,12.90
2024-03-15T02:33:19.359Z,12.77
2024-03-15T02:34:21.259Z,12.57
2024-03-15T02:35:27.958Z,12.60
2024-03-15T02:36:34.286Z,12.52
2024-03-15T02:37:38.870Z,13.02
2024-03-15T02:38:40.895Z,11.43
2024-03-15T02:39:42.740Z,10.80
2024-03-15T02:40:44.506Z,10.77
2024-03-15T02:41:47.232Z,11.48
2024-03-15T02:42:49.230Z,12.32
2024-03-15T02:43:51.412Z,12.37
2024-03-15T02:44:53.194Z,12.68
2024-03-15T02:45:55.036Z,12.27
2024-03-15T02:46:57.884Z,10.70
2024-03-15T02:47:59.748Z,9.88
2024-03-15T02:49:01.940Z,10.43
2024-03-15T02:50:04.233Z,12.18
2024-03-15T02:51:06.500Z,12.63
2024-03-15T02:52:08.296Z,11.32
2024-03-15T02:53:10.981Z,13.85
2024-03-15T02:54:15.092Z,14.68
2024-03-15T02:55:17.151Z,11.18
2024-03-15T02:56:19.004Z,12.57
2024-03-15T02:57:21.324Z,11.02
2024-03-15T02:58:23.204Z,12.27
2024-03-15T02:59:25.271Z,12.00
2024-03-15T03:00:27.065Z,10.60
2024-03-15T03:01:28.886Z,9.80
2024-03-15T03:02:30.684Z,10.90
2024-03-15T03:03:32.739Z,11.32
2024-03-15T03:04:36.721Z,10.25
2024-03-15T03:05:38.558Z,9.82
2024-03-15T03:06:40.376Z,10.30
2024-03-15T03:07:42.162Z,12.07
2024-03-15T03:08:43.890Z,11.25
2024-03-15T03:09:45.980Z,10.93
2024-03-15T03:10:47.823Z,9.30
2024-03-15T03:11:49.533Z,10.93
2024-03-15T03:12:51.393Z,12.73
2024-03-15T03:13:53.315Z,11.20
2024-03-15T03:14:55.303Z,9.25
2024-03-15T03:15:57.123Z,10.32
2024-03-15T03:16:58.945Z,12.70
2024-03-15T03:18:01.310Z,12.52
2024-03-15T03:19:06.484Z,11.43
2024-03-15T03:20:12.650Z,13.57
2024-03-15T03:21:14.736Z,11.63
2024-03-15T03:22:18.736Z,11.32
2024-03-15T03:23:20.536Z,12.40
2024-03-15T03:24:22.319Z,12.77
2024-03-15T03:25:25.336Z,12.20
2024-03-15T03:26:27.617Z,11.32
2024-03-15T03:27:29.380Z,11.50
2024-03-15T03:28:31.205Z,11.10
2024-03-15T03:29:32.968Z,10.75
2024-03-15T03:30:34.991Z,10.90
2024-03-15T03:31:36.786Z,11.77
2024-03-15T03:32:39.422Z,11.40
2024-03-15T03:33:41.246Z,11.05
2024-03-15T03:34:43.032Z,12.60
2024-03-15T03:35:45.038Z,12.20
2024-03-15T03:36:46.892Z,11.10
2024-03-15T03:37:48.673Z,11.10
2024-03-15T03:38:50.376Z,11.05
2024-03-15T03:39:52.240Z,10.38
2024-03-15T03:40:54.327Z,9.98
2024-03-15T03:41:56.538Z,12.75
2024-03-15T03:42:58.848Z,9.45
2024-03-15T03:44:00.603Z,10.00
2024-03-15T03:45:02.365Z,10.18
2024-03-15T03:46:08.020Z,11.52
2024-03-15T03:47:10.479Z,11.55
2024-03-15T03:48:12.434Z,10.80
2024-03-15T03:49:14.354Z,11.05
2024-03-15T03:50:16.785Z,10.43
2024-03-15T03:51:20.125Z,11.98
2024-03-15T03:52:21.886Z,12.88
2024-03-15T03:53:23.809Z,11.50
2024-03-15T03:54:25.840Z,11.38
2024-03-15T03:55:27.611Z,11.12
2024-03-15T03:56:30.308Z,10.57
2024-03-15T03:57:39.485Z,11.38
2024-03-15T03:58:47.896Z,12.80
2024-03-15T03:59:50.280Z,11.95
2024-03-15T04:00:52.350Z,11.23
2024-03-15T04:01:54.553Z,13.07
2024-03-15T04:02:56.313Z,11.25
2024-03-15T04:03:58.137Z,12.32
2024-03-15T04:05:00.043Z,10.93
2024-03-15T04:06:01.793Z,13.62
2024-03-15T04:07:03.784Z,12.27
2024-03-15T04:08:05.712Z,12.80
2024-03-15T04:09:08.515Z,9.63
2024-03-15T04:10:10.972Z,14.45
2024-03-15T04:11:12.819Z,11.55
2024-03-15T04:12:15.032Z,12.55
2024-03-15T04:13:16.811Z,11.20
2024-03-15T04:14:18.535Z,10.43
2024-03-15T04:15:26.142Z,11.45
2024-03-15T04:16:32.154Z,11.65
2024-03-15T04:17:36.232Z,10.07
2024-03-15T04:18:38.145Z,10.70
2024-03-15T04:19:41.666Z,12.48
2024-03-15T04:20:47.619Z,9.88
2024-03-15T04:21:49.667Z,10.65
2024-03-15T04:22:52.107Z,11.27
2024-03-15T04:23:56.866Z,12.57
2024-03-15T04:25:00.308Z,10.48
2024-03-15T04:26:02.030Z,11.27
2024-03-15T04:27:04.782Z,11.07
2024-03-15T04:28:07.562Z,11.30
2024-03-15T04:29:09.311Z,10.55
2024-03-15T04:30:17.819Z,11.77
2024-03-15T04:31:21.827Z,11.35
2024-03-15T04:32:23.627Z,10.55
2024-03-15T04:33:25.743Z,10.10
2024-03-15T04:34:27.535Z,11.25
2024-03-15T04:35:30.930Z,10.75
2024-03-15T04:36:32.822Z,10.07
2024-03-15T04:37:35.626Z,11.05
2024-03-15T04:38:38.903Z,11.90
2024-03-15T04:39:40.888Z,11.05
2024-03-15T04:40:43.041Z,10.25
2024-03-15T04:41:44.772Z,12.25
2024-03-15T04:42:48.103Z,12.10
2024-03-15T04:43:53.496Z,10.20
2024-03-15T04:44:55.702Z,10.93
2024-03-15T04:45:57.989Z,10.90
2024-03-15T04:47:02.174Z,12.90
2024-03-15T04:48:04.541Z,8.82
2024-03-15T04:49:08.305Z,10.43
2024-03-15T04:50:12.950Z,11.55
2024-03-15T04:51:14.709Z,9.73
2024-03-15T04:52:16.578Z,12.70
2024-03-15T04:53:18.302Z,11.38
2024-03-15T04:54:22.531Z,10.10
2024-03-15T04:55:24.327Z,9.88
2024-03-15T04:56:26.259Z,12.48
2024-03-15T04:57:28.522Z,10.00
2024-03-15T04:58:31.912Z,9.77
2024-03-15T04:59:34.586Z,9.35
2024-03-15T05:00:36.732Z,11.80
2024-03-15T05:01:39.141Z,10.80
2024-03-15T05:02:40.916Z,10.73
2024-03-15T05:03:43.922Z,9.63
2024-03-15T05:04:47.072Z,11.18
2024-03-15T05:05:48.925Z,11.18
2024-03-15T05:06:50.718Z,10.27
2024-03-15T05:07:54.662Z,10.52
2024-03-15T05:09:04.153Z,11.50
2024-03-15T05:10:11.017Z,10.93
2024-03-15T05:11:14.502Z,13.15
2024-03-15T05:12:16.312Z,10.80
2024-03-15T05:13:18.053Z,10.40
2024-03-15T05:14:19.844Z,12.20
2024-03-15T05:15:22.260Z,12.20
2024-03-15T05:16:24.201Z,11.10
2024-03-15T05:17:25.980Z,10.82
2024-03-15T05:18:27.754Z,12.30
2024-03-15T05:19:33.362Z,12.93
2024-03-15T05:20:40.308Z,10.55
2024-03-15T05:21:42.095Z,13.20
2024-03-15T05:22:47.366Z,11.98
2024-03-15T05:23:49.461Z,10.63
2024-03-15T05:24:51.676Z,11.38
2024-03-15T05:25:53.699Z,9.50
2024-03-15T05:26:55.464Z,11.00
2024-03-15T05:27:57.260Z,10.13
2024-03-15T05:28:59.064Z,10.73
2024-03-15T05:30:01.438Z,11.88
2024-03-15T05:31:07.842Z,10.57
2024-03-15T05:32:10.032Z,13.07
2024-03-15T05:33:11.881Z,11.88
2024-03-15T05:34:16.495Z,12.85
2024-03-15T05:35:21.910Z,9.57
2024-03-15T05:36:24.490Z,12.45
2024-03-15T05:37:27.644Z,12.07
2024-03-15T05:38:29.388Z,9.80
2024-03-15T05:39:32.787Z,10.27
2024-03-15T05:40:34.656Z,10.43
2024-03-15T05:41:37.388Z,12.43
2024-03-15T05:42:39.270Z,13.35
2024-03-15T05:43:41.157Z,13.82
2024-03-15T05:44:42.909Z,9.85
2024-03-15T05:45:44.980Z,11.73
2024-03-15T05:46:47.036Z,9.27
2024-03-15T05:47:50.473Z,10.38
2024-03-15T05:48:54.711Z,11.38
2024-03-15T05:49:59.806Z,10.05
2024-03-15T05:51:02.438Z,10.90
2024-03-15T05:52:04.476Z,9.52
2024-03-15T05:53:06.652Z,10.38
2024-03-15T05:54:09.749Z,12.05
2024-03-15T05:55:12.809Z,9.10
2024-03-15T05:56:16.019Z,8.15
2024-03-15T05:57:18.162Z,10.35
2024-03-15T05:58:20.708Z,8.60
2024-03-15T05:59:22.482Z,8.95
2024-03-15T06:00:24.728Z,10.00
2024-03-15T06:01:27.016Z,10.38
2024-03-15T06:02:28.771Z,8.45
2024-03-15T06:03:30.674Z,10.63
2024-03-15T06:04:35.209Z,10.32
2024-03-15T06:05:37.129Z,7.60
2024-03-15T06:06:41.657Z,10.52
2024-03-15T06:07:43.562Z,8.88
2024-03-15T06:08:45.560Z,14.90
2024-03-15T06:09:47.388Z,12.15
2024-03-15T06:10:49.262Z,10.88
2024-03-15T06:11:52.559Z,9.23
2024-03-15T06:12:56.403Z,9.95
2024-03-15T06:13:58.544Z,9.88
2024-03-15T06:15:00.490Z,10.80
2024-03-15T06:16:02.326Z,11.05
2024-03-15T06:17:05.707Z,9.10
2024-03-15T06:18:07.587Z,8.25
2024-03-15T06:19:09.616Z,9.55
2024-03-15T06:20:11.819Z,10.57
2024-03-15T06:21:13.721Z,11.27
2024-03-15T06:22:15.847Z,9.63
2024-03-15T06:23:17.545Z,9.23
2024-03-15T06:24:20.740Z,10.27
2024-03-15T06:25:22.755Z,10.63
2024-03-15T06:26:24.475Z,8.77
2024-03-15T06:27:26.624Z,9.60
2024-03-15T06:28:28.631Z,10.13
2024-03-15T06:29:35.077Z,8.80
2024-03-15T06:30:44.488Z,9.00
2024-03-15T06:31:46.384Z,9.77
2024-03-15T06:32:48.425Z,12.32
2024-03-15T06:33:51.305Z,10.02
2024-03-15T06:35:02.019Z,11.68
2024-03-15T06:36:06.782Z,10.88
2024-03-15T06:37:10.671Z,10.80
2024-03-15T06:38:28.784Z,9.65
2024-03-15T06:39:36.860Z,10.50
2024-03-15T06:40:57.438Z,10.65
2024-03-15T06:41:59.539Z,11.73
2024-03-15T06:43:04.345Z,10.63
2024-03-15T06:44:15.396Z,11.90
2024-03-15T06:45:25.589Z,14.60
2024-03-15T06:46:30.729Z,10.40
2024-03-15T06:47:33.375Z,10.85
2024-03-15T06:48:45.365Z,12.95
2024-03-15T06:50:07.839Z,16.10
2024-03-15T06:51:28.578Z,13.75
2024-03-15T06:52:35.817Z,12.60
2024-03-15T06:53:38.245Z,11.90
2024-03-15T06:54:40.060Z,12.25
2024-03-15T06:56:46.224Z,10.70
2024-03-15T06:57:49.983Z,10.23
2024-03-15T06:58:51.936Z,11.93
2024-03-15T06:59:53.663Z,14.15
2024-03-15T07:00:55.734Z,10.35
2024-03-15T07:01:57.620Z,12.93
2024-03-15T07:02:59.377Z,10.68
2024-03-15T07:04:01.194Z,12.68
2024-03-15T07:05:05.098Z,11.18
2024-03-15T07:06:07.766Z,13.23
2024-03-15T07:07:09.583Z,10.90
2024-03-15T07:08:11.377Z,13.82
2024-03-15T07:09:16.255Z,10.73
2024-03-15T07:10:18.827Z,11.15
2024-03-15T07:11:21.004Z,12.68
2024-03-15T07:12:24.192Z,12.60
2024-03-15T07:13:25.994Z,11.18
2024-03-15T07:14:27.723Z,12.07
2024-03-15T07:15:30.194Z,11.77
2024-03-15T07:16:32.894Z,12.70
2024-03-15T07:17:37.221Z,13.00
2024-03-15T07:18:40.944Z,11.50
2024-03-15T07:19:43.160Z,15.98
2024-03-15T07:20:45.274Z,15.18
2024-03-15T07:21:47.350Z,14.68
2024-03-15T07:22:49.204Z,13.75
2024-03-15T07:23:51.616Z,13.05
2024-03-15T07:24:53.418Z,11.65
2024-03-15T07:25:55.185Z,11.15
2024-03-15T07:26:57.370Z,12.37
2024-03-15T07:27:59.186Z,9.18
2024-03-15T07:29:00.971Z,13.57
2024-03-15T07:30:05.652Z,21.55
2024-03-15T07:31:10.187Z,12.90
2024-03-15T07:32:12.409Z,13.27
2024-03-15T07:33:14.399Z,11.55
2024-03-15T07:34:17.126Z,12.23
2024-03-15T07:35:19.168Z,14.48
2024-03-15T07:36:22.641Z,13.93
2024-03-15T07:37:24.861Z,14.32
2024-03-15T07:38:27.477Z,12.27
2024-03-15T07:39:33.887Z,17.60
2024-03-15T07:40:36.538Z,15.48
2024-03-15T07:41:40.019Z,13.85
2024-03-15T07:42:42.794Z,13.68
2024-03-15T07:43:45.359Z,14.05
2024-03-15T07:44:50.057Z,11.30
2024-03-15T07:45:51.920Z,14.20
2024-03-15T07:46:54.150Z,14.73
2024-03-15T07:47:58.067Z,15.02
2024-03-15T07:49:01.026Z,14.57
2024-03-15T07:50:02.983Z,15.90
2024-03-15T07:51:04.951Z,13.05
2024-03-15T07:52:07.860Z,13.52
2024-03-15T07:53:10.144Z,16.37
2024-03-15T07:54:12.145Z,13.27
2024-03-15T07:55:14.420Z,12.07
2024-03-15T07:56:16.500Z,10.25
2024-03-15T07:57:18.345Z,13.25
2024-03-15T07:58:20.535Z,13.73
2024-03-15T07:59:22.340Z,14.30
2024-03-15T08:00:24.330Z,18.67
2024-03-15T08:01:26.665Z,17.20
2024-03-15T08:02:28.471Z,17.10
2024-03-15T08:03:30.268Z,14.10
2024-03-15T08:04:34.095Z,14.85
2024-03-15T08:05:37.150Z,15.57
2024-03-15T08:06:39.878Z,16.35
2024-03-15T08:07:44.791Z,14.23
2024-03-15T08:08:46.779Z,13.18
2024-03-15T08:09:48.820Z,18.17
2024-03-15T08:10:50.753Z,15.32
2024-03-15T08:11:54.101Z,14.68
2024-03-15T08:12:56.040Z,18.15
2024-03-15T08:13:57.899Z,14.18
2024-03-15T08:14:59.685Z,14.98
2024-03-15T08:16:10.218Z,15.18
2024-03-15T08:17:12.298Z,17.05
2024-03-15T08:18:15.380Z,14.60
2024-03-15T08:19:17.485Z,14.43
2024-03-15T08:20:19.419Z,14.73
2024-03-15T08:21:21.951Z,15.82
2024-03-15T08:22:24.117Z,17.90
2024-03-15T08:23:25.899Z,19.02
2024-03-15T08:24:28.595Z,17.70
2024-03-15T08:25:30.478Z,17.50
2024-03-15T08:26:33.490Z,16.92
2024-03-15T08:27:36.613Z,16.20
2024-03-15T08:28:38.536Z,15.93
2024-03-15T08:29:41.022Z,16.17
2024-03-15T08:30:45.325Z,15.55
2024-03-15T08:31:48.962Z,14.82
2024-03-15T08:32:52.736Z,16.12
2024-03-15T08:33:54.568Z,17.50
2024-03-15T08:34:58.190Z,16.50
2024-03-15T08:36:01.718Z,16.67
2024-03-15T08:37:03.763Z,16.75
2024-03-15T08:38:06.638Z,16.40
2024-03-15T08:39:13.998Z,18.73
2024-03-15T08:40:17.381Z,21.10
2024-03-15T08:41:19.186Z,20.70
2024-03-15T08:42:21.940Z,23.67
2024-03-15T08:43:24.059Z,20.90
2024-03-15T08:44:26.034Z,18.83
2024-03-15T08:45:30.298Z,17.45
2024-03-15T08:46:33.066Z,18.85
2024-03-15T08:47:46.296Z,21.00
2024-03-15T08:48:57.174Z,17.05
2024-03-15T08:50:01.620Z,20.27
2024-03-15T08:51:06.336Z,17.87
2024-03-15T08:52:08.183Z,19.33
2024-03-15T08:53:10.976Z,18.25
2024-03-15T08:54:13.433Z,18.67
2024-03-15T08:55:17.226Z,21.92
2024-03-15T08:56:20.012Z,16.60
2024-03-15T08:57:24.151Z,18.77
2024-03-15T08:58:29.349Z,17.48
2024-03-15T08:59:31.429Z,18.70
2024-03-15T09:00:33.913Z,19.35
2024-03-15T09:01:36.526Z,17.60
2024-03-15T09:02:41.720Z,19.10
2024-03-15T09:03:46.898Z,18.45
2024-03-15T09:04:50.164Z,19.05
2024-03-15T09:05:52.118Z,18.25
2024-03-15T09:06:53.929Z,16.70
2024-03-15T09:07:55.796Z,19.67
2024-03-15T09:08:58.273Z,17.95
2024-03-15T09:10:00.540Z,17.52
2024-03-15T09:11:03.510Z,19.45
2024-03-15T09:12:05.503Z,17.37
2024-03-15T09:13:08.058Z,20.12
2024-03-15T09:14:11.907Z,19.52
2024-03-15T09:15:14.256Z,22.87
2024-03-15T09:16:16.200Z,18.80
2024-03-15T09:17:19.380Z,19.33
2024-03-15T09:18:21.669Z,19.75
2024-03-15T09:19:23.662Z,18.85
2024-03-15T09:20:32.067Z,17.45
2024-03-15T09:21:34.219Z,17.45
2024-03-15T09:22:37.175Z,20.08
2024-03-15T09:23:39.064Z,21.85
2024-03-15T09:24:41.051Z,17.67
2024-03-15T09:25:45.605Z,20.08
2024-03-15T09:26:48.937Z,18.40
2024-03-15T09:27:54.563Z,19.70
2024-03-15T09:29:01.205Z,19.52
2024-03-15T09:30:17.466Z,17.52
2024-03-15T09:31:41.246Z,19.83
2024-03-15T09:32:50.089Z,21.52
2024-03-15T09:33:55.941Z,18.80
2024-03-15T09:34:58.227Z,18.52
2024-03-15T09:36:00.882Z,19.15
2024-03-15T09:37:07.989Z,16.42
2024-03-15T09:38:10.630Z,20.37
2024-03-15T09:39:15.180Z,20.77
2024-03-15T09:40:22.582Z,20.15
2024-03-15T09:41:24.973Z,26.52
2024-03-15T09:42:28.698Z,24.55
2024-03-15T09:43:31.900Z,17.37
2024-03-15T09:44:33.848Z,20.58
2024-03-15T09:45:36.881Z,20.35
2024-03-15T09:46:39.190Z,18.55
2024-03-15T09:47:42.194Z,21.87
2024-03-15T09:48:49.138Z,16.35
2024-03-15T09:49:50.912Z,17.60
2024-03-15T09:50:57.795Z,16.73
2024-03-15T09:51:59.850Z,21.58
2024-03-15T09:53:01.907Z,19.00
2024-03-15T09:54:04.219Z,17.77
2024-03-15T09:55:14.843Z,18.65
2024-03-15T09:56:18.953Z,17.85
2024-03-15T09:57:20.851Z,17.55
2024-03-15T09:58:22.943Z,20.88
2024-03-15T09:59:32.473Z,18.80
2024-03-15T10:00:34.769Z,15.48
2024-03-15T10:01:38.466Z,16.87
2024-03-15T10:02:42.309Z,16.83
2024-03-15T10:03:45.079Z,17.87
2024-03-15T10:04:47.850Z,17.35
2024-03-15T10:05:49.758Z,17.25
2024-03-15T10:06:52.108Z,15.55
2024-03-15T10:07:53.962Z,16.92
2024-03-15T10:08:55.832Z,16.33
2024-03-15T10:09:57.709Z,18.55
2024-03-15T10:11:00.098Z,16.35
2024-03-15T10:12:02.325Z,16.02
2024-03-15T10:13:05.795Z,14.45
2024-03-15T10:14:09.272Z,18.05
2024-03-15T10:15:16.150Z,18.15
2024-03-15T10:16:17.989Z,17.25
2024-03-15T10:17:20.576Z,16.40
2024-03-15T10:18:22.551Z,17.83
2024-03-15T10:19:25.108Z,18.65
2024-03-15T10:20:27.239Z,17.50
2024-03-15T10:21:29.292Z,17.15
2024-03-15T10:22:31.926Z,15.75
2024-03-15T10:23:33.706Z,16.00
2024-03-15T10:24:35.656Z,15.90
2024-03-15T10:25:37.417Z,27.45
2024-03-15T10:26:39.474Z,23.12
2024-03-15T10:27:41.616Z,20.15
2024-03-15T10:28:45.106Z,19.42
2024-03-15T10:29:46.939Z,24.10
2024-03-15T10:30:48.975Z,13.10
2024-03-15T10:31:50.848Z,11.10
2024-03-15T10:32:55.003Z,13.65
2024-03-15T10:33:56.886Z,14.38
2024-03-15T10:34:58.646Z,16.10
2024-03-15T10:36:00.463Z,12.80
2024-03-15T10:37:02.308Z,12.30
2024-03-15T10:38:05.494Z,14.23
2024-03-15T10:39:10.082Z,12.68
2024-03-15T10:40:17.358Z,14.32
2024-03-15T10:41:19.643Z,14.02
2024-03-15T10:42:22.230Z,11.95
2024-03-15T10:43:24.704Z,11.55
2024-03-15T10:44:26.569Z,10.93
2024-03-15T10:45:29.227Z,13.62
2024-03-15T10:46:32.076Z,12.05
2024-03-15T10:47:34.962Z,11.85
2024-03-15T10:48:37.252Z,10.30
2024-03-15T10:49:41.516Z,12.07
2024-03-15T10:50:45.136Z,14.85
2024-03-15T10:51:48.131Z,12.88
2024-03-15T10:52:57.192Z,18.05
2024-03-15T10:54:00.456Z,11.73
2024-03-15T10:55:04.769Z,11.02
2024-03-15T10:56:08.252Z,13.82
2024-03-15T10:57:10.932Z,20.05
2024-03-15T10:58:12.783Z,15.50
2024-03-15T10:59:15.131Z,16.17
2024-03-15T11:00:22.457Z,20.27
2024-03-15T11:01:25.344Z,13.38
2024-03-15T11:02:27.490Z,14.87
2024-03-15T11:03:32.650Z,16.70
2024-03-15T11:04:35.037Z,14.18
2024-03-15T11:05:36.987Z,14.80
2024-03-15T11:06:40.445Z,16.48
2024-03-15T11:07:42.303Z,18.92
2024-03-15T11:08:44.154Z,46.05
2024-03-15T11:09:47.689Z,24.85
2024-03-15T11:10:55.957Z,17.58
2024-03-15T11:12:02.873Z,15.68
2024-03-15T11:13:05.110Z,14.02
2024-03-15T11:14:14.995Z,18.15
2024-03-15T11:15:20.242Z,14.15
2024-03-15T11:16:25.617Z,19.50
2024-03-15T11:17:27.719Z,13.20
2024-03-15T11:18:38.803Z,15.07
2024-03-15T11:19:41.769Z,17.15
2024-03-15T11:20:45.601Z,16.65
2024-03-15T11:21:47.410Z,15.02
2024-03-15T11:22:56.824Z,23.15
2024-03-15T11:24:07.747Z,34.20
2024-03-15T11:25:17.550Z,23.67
2024-03-15T11:26:23.923Z,18.15
2024-03-15T11:27:26.349Z,15.20
2024-03-15T11:28:33.325Z,14.73
2024-03-15T11:29:37.883Z,20.35
2024-03-15T11:30:41.140Z,18.80
2024-03-15T11:31:46.043Z,16.10
2024-03-15T11:32:47.964Z,14.90
2024-03-15T11:33:54.695Z,18.50
2024-03-15T11:34:56.683Z,17.10
2024-03-15T11:35:59.557Z,38.28
2024-03-15T11:37:02.402Z,132.50
2024-03-15T11:38:04.211Z,269.87
2024-03-15T11:39:11.311Z,89.28
2024-03-15T11:40:13.085Z,29.85
2024-03-15T11:41:15.530Z,17.27
2024-03-15T11:42:17.610Z,16.58
2024-03-15T11:43:19.373Z,14.80
2024-03-15T11:44:21.193Z,20.10
2024-03-15T11:45:22.997Z,23.62
2024-03-15T11:46:25.513Z,15.77
2024-03-15T11:47:27.761Z,23.77
2024-03-15T11:48:29.640Z,22.33
2024-03-15T11:49:31.561Z,22.52
2024-03-15T11:50:36.063Z,15.18
2024-03-15T11:51:37.925Z,18.65
2024-03-15T11:52:40.010Z,17.50
2024-03-15T11:53:42.438Z,25.00
2024-03-15T11:54:44.285Z,14.65
2024-03-15T11:55:50.592Z,16.67
2024-03-15T11:56:58.895Z,14.43
2024-03-15T11:58:01.192Z,15.95
2024-03-15T11:59:03.801Z,14.25
2024-03-15T12:00:18.874Z,13.38
2024-03-15T12:01:21.248Z,17.90
2024-03-15T12:02:23.577Z,13.35
2024-03-15T12:03:31.604Z,12.75
2024-03-15T12:04:33.658Z,12.23
2024-03-15T12:05:39.421Z,19.00
2024-03-15T12:06:41.488Z,14.23
2024-03-15T12:07:44.591Z,15.80
2024-03-15T12:08:46.417Z,13.52
2024-03-15T12:09:49.181Z,12.18
2024-03-15T12:10:53.063Z,11.35
2024-03-15T12:11:56.398Z,14.63
2024-03-15T12:12:58.200Z,13.70
2024-03-15T12:14:00.499Z,11.60
2024-03-15T12:15:02.236Z,15.43
2024-03-15T12:16:07.215Z,14.45
2024-03-15T12:17:14.972Z,10.95
2024-03-15T12:18:19.014Z,15.07
2024-03-15T12:19:21.181Z,13.98
2024-03-15T12:20:22.966Z,11.38
2024-03-15T12:21:25.772Z,12.07
2024-03-15T12:22:27.928Z,19.08
2024-03-15T12:23:29.686Z,14.15
2024-03-15T12:24:31.489Z,14.55
2024-03-15T12:25:33.313Z,12.95
2024-03-15T12:26:35.768Z,13.57
2024-03-15T12:27:37.895Z,17.95
2024-03-15T12:28:39.753Z,13.15
2024-03-15T12:29:41.827Z,12.07
2024-03-15T12:30:44.281Z,15.50
2024-03-15T12:31:46.098Z,14.23
2024-03-15T12:32:48.191Z,15.13
2024-03-15T12:33:50.153Z,14.18
2024-03-15T12:34:52.456Z,17.77
2024-03-15T12:35:56.573Z,14.63
2024-03-15T12:36:58.403Z,13.13
2024-03-15T12:38:01.460Z,24.42
2024-03-15T12:39:04.303Z,17.02
2024-03-15T12:40:14.158Z,19.25
2024-03-15T12:41:16.372Z,18.45
2024-03-15T12:42:18.171Z,13.07
2024-03-15T12:43:24.292Z,13.90
2024-03-15T12:44:26.094Z,16.33
2024-03-15T12:45:28.330Z,18.50
2024-03-15T12:46:30.132Z,15.32
2024-03-15T12:47:37.829Z,12.37
2024-03-15T12:48:39.907Z,14.45
2024-03-15T12:49:41.663Z,14.80
2024-03-15T12:50:43.591Z,13.25
2024-03-15T12:51:45.450Z,16.25
2024-03-15T12:52:47.673Z,13.23
2024-03-15T12:53:50.608Z,14.00
2024-03-15T12:54:52.638Z,14.73
2024-03-15T12:55:54.509Z,16.08
2024-03-15T12:56:56.327Z,13.85
2024-03-15T12:57:58.142Z,15.35
2024-03-15T12:59:00.622Z,15.38
2024-03-15T13:00:02.380Z,16.30
2024-03-15T13:01:05.862Z,13.57
2024-03-15T13:02:08.424Z,14.13
2024-03-15T13:03:11.656Z,14.43
2024-03-15T13:04:13.715Z,20.85
2024-03-15T13:05:19.516Z,33.30
2024-03-15T13:06:21.263Z,39.28
2024-03-15T13:07:23.346Z,18.33
2024-03-15T13:08:25.144Z,14.52
2024-03-15T13:09:27.487Z,17.33
2024-03-15T13:10:30.084Z,12.77
2024-03-15T13:11:31.891Z,18.80
2024-03-15T13:12:33.960Z,34.67
2024-03-15T13:13:36.384Z,15.07
2024-03-15T13:14:38.472Z,16.73
2024-03-15T13:15:40.307Z,17.90
2024-03-15T13:16:42.499Z,16.73
2024-03-15T13:17:50.367Z,21.17
2024-03-15T13:18:52.698Z,15.38
2024-03-15T13:19:55.063Z,16.45
2024-03-15T13:20:57.063Z,14.85
2024-03-15T13:21:59.047Z,13.50
2024-03-15T13:23:05.957Z,16.60
2024-03-15T13:24:08.717Z,16.10
2024-03-15T13:25:27.276Z,18.37
2024-03-15T13:26:37.087Z,12.43
2024-03-15T13:27:38.931Z,14.82
2024-03-15T13:28:42.227Z,12.68
2024-03-15T13:29:44.380Z,13.55
2024-03-15T13:30:46.548Z,16.48
2024-03-15T13:31:48.437Z,15.70
2024-03-15T13:32:54.047Z,15.30
2024-03-15T13:33:56.488Z,14.45
2024-03-15T13:34:58.377Z,15.32
2024-03-15T13:36:00.618Z,16.77